Time;durP1;ratioP1;P1;durP2;ratioP2;P2;SDS_P1;SDS_P2;PMS_P1;PMS_P2;Temp;Humidity;BMP_temperature;BMP_pressure;BME280_temperature;BME280_humidity;BME280_pressure;Samples;Min_cycle;Max_cycle;Signal;HPM_P1;HPM_P2
2022/06/04 09:19:49;;;;;;;;;;;13.90;99.90;;;;;;5070536;28;20391;-53
2022/06/04 09:22:16;;;;;;;13.10;4.90;;;13.90;99.90;;;;;;5054099;28;19921;-55
2022/06/04 09:24:43;;;;;;;13.35;5.28;;;14.10;99.90;;;;;;5048920;28;20037;-54
2022/06/04 09:27:10;;;;;;;16.67;4.82;;;14.30;99.90;;;;;;5050314;28;20029;-55
2022/06/04 09:29:36;;;;;;;14.38;4.85;;;14.50;99.90;;;;;;5053617;28;20370;-54
2022/06/04 09:32:03;;;;;;;13.50;4.20;;;14.70;99.90;;;;;;5049404;28;20055;-52
2022/06/04 09:34:30;;;;;;;13.73;4.55;;;14.90;99.90;;;;;;5050239;28;20049;-54
2022/06/04 09:36:57;;;;;;;11.52;3.90;;;15.10;99.90;;;;;;5045827;28;20078;-51
2022/06/04 09:39:24;;;;;;;14.50;4.60;;;15.30;99.90;;;;;;5049631;28;20033;-57
2022/06/04 09:41:50;;;;;;;12.10;4.15;;;15.40;99.90;;;;;;5063168;28;20044;-55
2022/06/04 09:44:17;;;;;;;13.98;4.85;;;15.40;99.60;;;;;;5049844;28;20046;-51
2022/06/04 09:46:44;;;;;;;10.43;3.97;;;15.60;99.50;;;;;;5050121;28;20420;-52
2022/06/04 09:49:11;;;;;;;12.05;4.18;;;15.80;99.90;;;;;;5042542;28;20045;-51
2022/06/04 09:51:38;;;;;;;13.77;4.45;;;15.80;99.00;;;;;;5049638;28;20420;-53
2022/06/04 09:54:05;;;;;;;14.43;4.07;;;16.10;99.70;;;;;;5047968;28;20029;-53
2022/06/04 09:56:31;;;;;;;13.88;4.38;;;16.30;99.60;;;;;;5049152;28;20369;-56
2022/06/04 09:58:58;;;;;;;10.18;3.90;;;16.50;98.40;;;;;;5046609;28;20076;-51
2022/06/04 10:01:25;;;;;;;10.63;3.90;;;16.70;98.10;;;;;;5047573;28;20033;-53
2022/06/04 10:03:52;;;;;;;13.13;4.32;;;16.80;97.70;;;;;;5049300;28;20461;-52
2022/06/04 10:06:19;;;;;;;14.45;3.72;;;17.00;97.70;;;;;;5047526;28;20045;-55
2022/06/04 10:11:31;;;;;;;12.63;3.95;;;17.30;96.70;;;;;;5047325;28;20477;-53
2022/06/04 10:13:58;;;;;;;14.25;3.42;;;17.20;95.30;;;;;;5048884;28;20103;-52
2022/06/04 10:16:25;;;;;;;9.95;3.50;;;17.10;95.50;;;;;;5048035;28;20049;-53
2022/06/04 10:18:51;;;;;;;14.30;4.00;;;17.10;95.80;;;;;;5049085;28;20497;-51
2022/06/04 10:21:18;;;;;;;9.60;3.42;;;17.00;95.40;;;;;;5048872;28;20041;-53
2022/06/04 10:23:45;;;;;;;14.07;4.22;;;17.10;95.30;;;;;;5049446;28;20052;-54
2022/06/04 10:26:12;;;;;;;8.85;3.55;;;17.30;95.80;;;;;;5049456;28;20041;-55
2022/06/04 10:28:40;;;;;;;11.20;3.15;;;17.50;95.30;;;;;;5049442;28;20049;-54
2022/06/04 10:31:07;;;;;;;13.52;3.35;;;17.40;94.50;;;;;;5035259;28;20041;-51
2022/06/04 10:33:33;;;;;;;10.30;3.58;;;17.40;95.00;;;;;;5037395;28;20443;-46
2022/06/04 10:36:03;;;;;;;12.88;3.33;;;17.50;94.60;;;;;;5034299;28;20051;-57
2022/06/04 10:38:30;;;;;;;11.23;3.78;;;17.30;94.30;;;;;;5032024;28;20454;-56
2022/06/04 10:40:57;;;;;;;8.85;3.28;;;17.30;94.20;;;;;;5039819;28;20053;-54
2022/06/04 10:43:42;;;;;;;13.65;3.45;;;17.20;94.50;;;;;;5035556;28;20041;-53
2022/06/04 10:46:09;;;;;;;11.63;3.67;;;17.10;95.10;;;;;;5035610;28;20041;-57
2022/06/04 10:48:36;;;;;;;12.55;3.42;;;17.20;94.50;;;;;;5035394;28;20104;-54
2022/06/04 10:53:48;;;;;;;10.50;3.22;;;17.30;94.30;;;;;;5035425;28;20041;-54
2022/06/04 10:56:15;;;;;;;11.68;3.42;;;17.50;93.00;;;;;;5035463;28;20046;-54
2022/06/04 10:58:42;;;;;;;8.38;3.15;;;17.50;93.20;;;;;;5035471;28;20512;-51
2022/06/04 11:01:08;;;;;;;13.18;3.10;;;17.70;93.30;;;;;;5034426;28;20037;-54
2022/06/04 11:03:35;;;;;;;11.85;3.47;;;17.70;92.80;;;;;;5035165;28;20040;-52
2022/06/04 11:06:02;;;;;;;8.80;2.83;;;17.60;92.20;;;;;;5035133;28;20042;-54
2022/06/04 11:08:29;;;;;;;9.93;2.70;;;17.60;92.80;;;;;;5035100;28;20040;-54
2022/06/04 11:10:56;;;;;;;12.13;3.15;;;17.70;92.80;;;;;;5035265;28;20130;-52
2022/06/04 11:13:22;;;;;;;10.02;3.45;;;17.60;92.30;;;;;;5034876;28;20042;-52
2022/06/04 11:15:49;;;;;;;10.02;3.28;;;17.60;92.10;;;;;;5035057;28;20543;-52
2022/06/04 11:18:16;;;;;;;7.35;2.80;;;17.60;92.20;;;;;;5034831;28;20053;-54
2022/06/04 11:20:42;;;;;;;9.68;3.38;;;17.60;92.10;;;;;;5039637;28;20480;-55
2022/06/04 11:23:11;;;;;;;13.10;3.83;;;17.50;92.10;;;;;;5034658;28;20042;-52
2022/06/04 11:25:38;;;;;;;11.25;3.15;;;17.50;92.20;;;;;;5034843;28;20072;-55
2022/06/04 11:28:05;;;;;;;8.82;3.10;;;17.50;92.60;;;;;;5034978;28;20045;-54
2022/06/04 11:30:31;;;;;;;10.18;3.50;;;17.40;92.30;;;;;;5034604;28;20429;-56
2022/06/04 11:32:58;;;;;;;10.82;3.60;;;17.40;92.50;;;;;;5034575;28;20045;-51
2022/06/04 11:35:25;;;;;;;9.43;3.45;;;17.40;92.60;;;;;;5034635;28;20044;-53
2022/06/04 11:37:52;;;;;;;10.82;3.20;;;17.50;92.30;;;;;;5034790;28;20591;-52
2022/06/04 11:40:18;;;;;;;10.55;3.15;;;17.50;91.70;;;;;;5034522;28;20099;-55
2022/06/04 11:42:45;;;;;;;11.85;3.03;;;17.60;92.10;;;;;;5033553;28;20041;-52
2022/06/04 11:45:12;;;;;;;12.85;3.28;;;17.60;91.60;;;;;;5034686;28;20042;-54
2022/06/04 11:47:38;;;;;;;10.38;3.33;;;17.60;92.10;;;;;;5034379;28;20045;-53
2022/06/04 11:50:05;;;;;;;9.48;3.55;;;17.60;92.60;;;;;;5036219;28;20056;-54
2022/06/04 11:52:32;;;;;;;12.73;3.40;;;17.90;92.70;;;;;;5034645;28;20061;-55
2022/06/04 11:54:59;;;;;;;9.30;3.47;;;18.10;92.10;;;;;;5034158;28;20405;-53
2022/06/04 11:57:25;;;;;;;9.85;3.50;;;18.20;91.90;;;;;;5034176;28;20067;-51
2022/06/04 11:59:52;;;;;;;12.82;3.85;;;18.10;91.90;;;;;;5034020;28;20038;-51
2022/06/04 12:02:19;;;;;;;10.75;3.25;;;18.20;92.90;;;;;;5032776;28;20443;-53
2022/06/04 12:04:46;;;;;;;10.43;3.17;;;18.30;92.90;;;;;;5016520;28;20041;-51
2022/06/04 12:07:13;;;;;;;8.88;3.45;;;18.30;91.70;;;;;;5033944;28;20489;-57
2022/06/04 12:09:39;;;;;;;10.45;3.50;;;18.40;91.40;;;;;;5034005;28;20071;-52
2022/06/04 12:12:06;;;;;;;10.02;3.05;;;18.30;91.60;;;;;;5034023;28;20472;-55
2022/06/04 12:14:33;;;;;;;11.52;3.10;;;18.30;91.60;;;;;;5033691;28;20049;-54
2022/06/04 12:17:00;;;;;;;9.00;3.47;;;18.30;92.00;;;;;;5033912;28;20039;-56
2022/06/04 12:24:59;;;;;;;14.32;4.32;;;18.70;91.70;;;;;;5040056;28;19943;-55
2022/06/04 12:27:30;;;;;;;11.15;3.85;;;18.70;92.20;;;;;;5032683;28;20136;-53
2022/06/04 12:29:57;;;;;;;11.80;3.60;;;18.70;91.70;;;;;;5029597;28;20041;-55
2022/06/04 12:32:24;;;;;;;10.60;4.15;;;18.70;92.00;;;;;;5030406;28;20046;-56
2022/06/04 12:34:51;;;;;;;15.10;3.67;;;18.90;92.00;;;;;;5027881;28;20069;-52
2022/06/04 12:37:17;;;;;;;15.20;3.95;;;18.70;91.40;;;;;;5023976;28;20076;-52
2022/06/04 12:39:44;;;;;;;11.88;3.28;;;18.60;92.00;;;;;;5033416;28;20107;-53
2022/06/04 12:42:11;;;;;;;10.38;3.95;;;18.60;91.90;;;;;;5032449;28;20045;-54
2022/06/04 12:44:38;;;;;;;17.65;3.88;;;18.70;91.90;;;;;;5034589;28;20481;-49
2022/06/04 12:47:04;;;;;;;10.82;3.83;;;18.80;91.50;;;;;;5031236;28;20045;-56
2022/06/04 12:49:31;;;;;;;13.15;3.70;;;18.70;91.20;;;;;;5030683;28;20113;-55
2022/06/04 12:51:58;;;;;;;13.68;3.75;;;18.60;91.90;;;;;;5031053;28;20034;-52
2022/06/04 12:54:25;;;;;;;12.95;3.85;;;18.60;91.50;;;;;;5030649;28;20542;-50
2022/06/04 12:56:52;;;;;;;11.07;4.00;;;18.60;92.30;;;;;;5031123;28;20034;-53
2022/06/04 12:59:18;;;;;;;8.52;3.75;;;18.70;91.60;;;;;;5030629;28;20049;-56
2022/06/04 13:01:45;;;;;;;13.25;4.28;;;18.80;91.60;;;;;;5032165;28;20045;-55
2022/06/04 13:04:13;;;;;;;10.15;3.88;;;18.70;91.50;;;;;;5032652;28;20046;-55
2022/06/04 13:06:40;;;;;;;13.35;3.38;;;18.70;92.00;;;;;;5032275;28;20050;-56
2022/06/04 13:09:07;;;;;;;14.52;3.70;;;18.80;91.50;;;;;;5033006;28;20092;-56
2022/06/04 13:11:34;;;;;;;13.05;3.95;;;18.80;91.60;;;;;;5033076;28;20104;-56
2022/06/04 13:14:01;;;;;;;18.35;3.90;;;18.90;91.60;;;;;;5034776;28;20095;-48
2022/06/04 13:16:28;;;;;;;10.15;3.28;;;18.90;91.30;;;;;;5032959;28;20042;-54
2022/06/04 13:18:55;;;;;;;10.13;3.53;;;19.00;90.80;;;;;;5035195;28;20076;-55
2022/06/04 13:21:22;;;;;;;11.43;3.60;;;18.80;90.80;;;;;;5032988;28;20045;-52
2022/06/04 13:23:49;;;;;;;8.55;3.42;;;18.90;90.70;;;;;;5032875;28;20037;-57
2022/06/04 13:26:15;;;;;;;16.88;3.90;;;18.80;90.90;;;;;;5032993;28;20049;-56
2022/06/04 13:28:42;;;;;;;13.02;4.18;;;18.80;90.70;;;;;;5032882;28;20045;-52
2022/06/04 13:31:09;;;;;;;12.18;3.88;;;18.80;91.10;;;;;;5032909;28;20045;-57
2022/06/04 13:33:36;;;;;;;7.63;3.20;;;18.90;91.10;;;;;;5032747;28;20537;-54
2022/06/04 13:36:03;;;;;;;11.75;3.85;;;19.00;90.60;;;;;;5032727;28;20052;-52
2022/06/04 13:38:29;;;;;;;10.55;3.70;;;19.00;90.50;;;;;;5032804;28;20103;-56
2022/06/04 13:40:56;;;;;;;13.68;4.05;;;18.80;90.90;;;;;;5032763;28;20063;-53
2022/06/04 13:43:23;;;;;;;12.38;3.75;;;19.00;90.90;;;;;;5032626;28;20045;-55
2022/06/04 13:45:50;;;;;;;10.38;3.45;;;19.00;90.50;;;;;;5032626;28;20045;-54
2022/06/04 13:48:16;;;;;;;13.70;4.10;;;18.90;90.70;;;;;;5036565;28;20045;-55
2022/06/04 13:50:43;;;;;;;8.32;3.50;;;19.00;90.20;;;;;;5034355;28;20045;-54
2022/06/04 13:53:10;;;;;;;17.38;4.00;;;19.00;90.00;;;;;;5032588;28;20473;-53
2022/06/04 13:55:37;;;;;;;12.98;3.92;;;19.00;90.00;;;;;;5032493;28;20037;-54
2022/06/04 13:58:03;;;;;;;10.30;3.78;;;19.10;90.40;;;;;;5032659;28;20037;-52
2022/06/04 14:00:37;;;;;;;10.45;3.50;;;19.20;89.60;;;;;;5032583;28;20046;-54
2022/06/04 14:03:04;;;;;;;8.07;3.58;;;19.10;89.50;;;;;;5031188;28;20049;-55
2022/06/04 14:05:44;;;;;;;12.10;3.35;;;19.10;89.00;;;;;;5034799;28;20056;-55
2022/06/04 14:08:11;;;;;;;10.82;3.50;;;19.00;89.10;;;;;;5036368;28;20037;-60
2022/06/04 14:10:38;;;;;;;11.73;4.10;;;19.10;89.60;;;;;;5036372;28;20447;-53
2022/06/04 14:13:05;;;;;;;10.90;3.90;;;19.10;89.50;;;;;;5036228;28;20049;-55
2022/06/04 14:15:32;;;;;;;10.85;3.67;;;19.10;88.10;;;;;;5030059;28;20040;-54
2022/06/04 14:18:02;;;;;;;9.27;3.35;;;19.10;87.20;;;;;;5030830;28;20465;-55
2022/06/04 14:20:29;;;;;;;17.50;3.53;;;19.10;87.00;;;;;;5036929;28;20404;-54
2022/06/04 14:22:56;;;;;;;10.73;3.40;;;19.20;87.20;;;;;;5034749;28;20400;-54
2022/06/04 14:25:23;;;;;;;10.00;3.70;;;19.10;87.60;;;;;;5036028;28;20042;-51
2022/06/04 14:27:52;;;;;;;10.32;3.25;;;19.20;88.30;;;;;;5035930;28;20055;-53
2022/06/04 14:30:19;;;;;;;11.88;4.20;;;19.20;88.60;;;;;;5035837;28;20064;-53
2022/06/04 14:32:49;;;;;;;8.80;3.53;;;19.30;88.10;;;;;;5035987;28;20072;-54
2022/06/04 14:35:19;;;;;;;12.82;4.53;;;19.30;88.60;;;;;;5035934;28;20038;-57
2022/06/04 14:37:46;;;;;;;11.27;3.92;;;19.30;88.10;;;;;;5035835;28;20037;-54
2022/06/04 14:40:13;;;;;;;9.48;3.22;;;19.40;87.70;;;;;;5035716;28;20485;-54
2022/06/04 14:42:40;;;;;;;11.18;4.22;;;19.20;87.20;;;;;;5035624;28;20077;-55
2022/06/04 14:45:07;;;;;;;11.48;3.92;;;19.20;88.50;;;;;;5035504;28;20488;-54
2022/06/04 14:47:33;;;;;;;11.07;3.80;;;19.40;87.50;;;;;;5035647;28;20041;-55
2022/06/04 14:50:00;;;;;;;10.95;3.42;;;19.50;87.50;;;;;;5039459;28;20060;-55
2022/06/04 14:52:27;;;;;;;9.80;3.83;;;19.50;88.00;;;;;;5035665;28;20099;-51
2022/06/04 14:54:54;;;;;;;12.70;4.28;;;19.60;87.20;;;;;;5035407;28;20374;-55
2022/06/04 14:57:40;;;;;;;12.73;4.05;;;19.60;87.20;;;;;;5035513;28;20037;-52
2022/06/04 15:02:46;;;;;;;9.73;4.00;;;19.70;87.20;;;;;;5035189;28;20404;-54
2022/06/04 15:05:15;;;;;;;10.45;3.45;;;19.80;87.00;;;;;;5035298;28;20045;-56
2022/06/04 15:07:48;;;;;;;14.48;4.45;;;19.80;87.50;;;;;;5035231;28;20049;-53
2022/06/04 15:10:15;;;;;;;9.20;3.70;;;20.00;86.80;;;;;;5035216;28;20041;-52
2022/06/04 15:12:41;;;;;;;13.73;3.90;;;20.20;86.30;;;;;;5035259;28;20412;-52
2022/06/04 15:15:08;;;;;;;9.15;3.58;;;20.20;86.20;;;;;;5035070;28;20042;-53
2022/06/04 15:17:36;;;;;;;13.77;3.97;;;20.10;85.20;;;;;;5034924;28;20033;-52
2022/06/04 15:20:03;;;;;;;13.25;3.67;;;19.80;85.80;;;;;;5039870;28;20041;-56
2022/06/04 15:22:30;;;;;;;10.98;4.00;;;19.70;87.40;;;;;;5034879;28;20103;-51
2022/06/04 15:24:57;;;;;;;9.52;4.10;;;19.70;86.80;;;;;;5034788;28;20049;-54
2022/06/04 15:27:24;;;;;;;12.25;3.70;;;19.40;85.60;;;;;;5034898;28;20060;-54
2022/06/04 15:35:24;;;;;;;10.20;3.58;;;19.50;86.20;;;;;;5034625;28;20045;-55
2022/06/04 15:37:51;;;;;;;11.65;3.50;;;19.50;85.90;;;;;;5036072;28;20366;-58
2022/06/04 15:40:18;;;;;;;10.82;3.85;;;19.60;86.00;;;;;;5034437;28;20374;-53
2022/06/04 15:42:45;;;;;;;9.68;3.88;;;19.50;85.20;;;;;;5034668;28;20096;-53
2022/06/04 15:45:11;;;;;;;8.57;2.90;;;19.50;85.40;;;;;;5034506;28;20048;-56
2022/06/04 15:47:39;;;;;;;13.13;4.10;;;19.40;84.20;;;;;;5034784;28;20381;-54
2022/06/04 15:55:57;;;;;;;9.23;3.95;;;19.10;85.70;;;;;;5031943;28;20403;-53
2022/06/04 15:58:24;;;;;;;12.38;4.10;;;19.00;86.80;;;;;;5031864;28;20394;-56
2022/06/04 16:00:50;;;;;;;13.68;4.53;;;19.10;86.90;;;;;;5032847;28;20057;-54
2022/06/04 16:03:17;;;;;;;10.88;4.30;;;19.10;86.40;;;;;;5034290;28;20091;-53
2022/06/04 16:05:44;;;;;;;12.93;4.78;;;19.30;86.20;;;;;;5034261;28;20049;-55
2022/06/04 16:08:12;;;;;;;9.55;3.97;;;19.30;85.80;;;;;;5038716;28;20511;-51
2022/06/04 16:10:38;;;;;;;10.60;3.60;;;19.60;85.60;;;;;;5034107;28;20045;-58
2022/06/04 16:13:05;;;;;;;11.95;3.63;;;20.00;85.10;;;;;;5034138;28;20038;-55
2022/06/04 16:15:34;;;;;;;9.35;3.78;;;20.50;83.00;;;;;;5034278;28;20116;-51
2022/06/04 16:18:02;;;;;;;12.70;3.97;;;20.60;82.60;;;;;;5033949;28;20053;-54
2022/06/04 16:20:29;;;;;;;13.05;3.83;;;21.10;82.80;;;;;;5034054;28;20045;-55
2022/06/04 16:22:56;;;;;;;15.18;4.00;;;21.30;81.20;;;;;;5034100;28;20393;-56
2022/06/04 16:25:23;;;;;;;9.45;3.65;;;21.30;81.00;;;;;;5033578;28;20055;-56
2022/06/04 16:27:50;;;;;;;10.70;3.30;;;21.40;80.00;;;;;;5033612;28;20099;-56
2022/06/04 16:30:16;;;;;;;11.52;4.13;;;21.50;79.20;;;;;;5033860;28;20057;-57
2022/06/04 16:32:43;;;;;;;9.70;3.58;;;21.70;78.70;;;;;;5033868;28;20120;-55
2022/06/04 16:35:10;;;;;;;11.43;3.50;;;21.80;77.80;;;;;;5034337;28;20053;-56
2022/06/04 16:37:38;;;;;;;7.95;3.55;;;22.00;78.20;;;;;;5033827;28;20051;-53
2022/06/04 16:40:04;;;;;;;8.48;3.20;;;22.40;78.10;;;;;;5033788;28;20064;-58
2022/06/04 16:42:31;;;;;;;9.68;3.40;;;22.30;78.00;;;;;;5033825;28;20033;-54
2022/06/04 16:44:58;;;;;;;17.25;7.93;;;22.50;77.60;;;;;;5033702;28;20117;-56
2022/06/04 16:47:25;;;;;;;12.63;5.65;;;22.20;77.70;;;;;;5032387;28;20037;-55
2022/06/04 16:49:57;;;;;;;13.30;4.50;;;22.10;78.60;;;;;;5033466;28;20053;-56
2022/06/04 16:52:24;;;;;;;12.65;3.75;;;21.90;78.40;;;;;;5033702;28;20112;-55
2022/06/04 16:54:51;;;;;;;10.70;3.35;;;21.50;79.20;;;;;;5033456;28;20065;-56
2022/06/04 16:57:17;;;;;;;11.32;3.67;;;21.30;79.70;;;;;;5033478;28;20037;-55
2022/06/04 16:59:44;;;;;;;10.90;4.03;;;20.90;80.10;;;;;;5032260;28;20096;-54
2022/06/04 17:02:11;;;;;;;12.23;4.47;;;20.60;81.60;;;;;;5033452;28;20045;-57
2022/06/04 17:04:38;;;;;;;17.83;7.38;;;20.60;81.90;;;;;;5039021;28;20542;-56
2022/06/04 17:07:06;;;;;;;11.57;4.82;;;20.20;83.10;;;;;;5033465;28;20045;-56
2022/06/04 17:09:32;;;;;;;12.23;3.83;;;20.10;84.10;;;;;;5033381;28;20041;-59
2022/06/04 17:11:59;;;;;;;8.13;3.50;;;20.10;83.60;;;;;;5033339;28;20041;-52
2022/06/04 17:14:26;;;;;;;13.75;4.05;;;20.00;83.70;;;;;;5033249;28;20033;-55
2022/06/04 17:16:53;;;;;;;12.95;3.80;;;20.10;84.20;;;;;;5033245;28;20033;-55
2022/06/04 17:19:20;;;;;;;14.07;3.90;;;20.20;83.90;;;;;;5036288;28;20595;-56
2022/06/04 17:21:47;;;;;;;12.02;4.03;;;20.30;83.00;;;;;;5033149;28;20048;-57
2022/06/04 17:24:14;;;;;;;12.80;4.13;;;20.10;82.70;;;;;;5033075;28;20477;-58
2022/06/04 17:26:41;;;;;;;9.05;4.10;;;19.90;83.60;;;;;;5033164;28;20099;-56
2022/06/04 17:29:07;;;;;;;17.02;8.52;;;19.80;83.70;;;;;;5033162;28;20046;-55
2022/06/04 17:31:35;;;;;;;16.38;5.70;;;19.70;83.70;;;;;;5032893;28;20091;-53
2022/06/04 17:34:04;;;;;;;7.75;3.10;;;19.60;82.60;;;;;;5032987;28;20144;-55
2022/06/04 17:36:31;;;;;;;10.75;3.33;;;19.60;82.90;;;;;;5031942;28;20041;-56
2022/06/04 17:38:57;;;;;;;10.25;3.17;;;19.60;82.10;;;;;;5033004;28;20045;-51
2022/06/04 17:41:24;;;;;;;10.18;3.30;;;19.40;81.80;;;;;;5041624;28;20116;-54
2022/06/04 17:43:51;;;;;;;8.68;3.33;;;19.40;82.40;;;;;;5037423;28;20055;-58
2022/06/04 17:46:18;;;;;;;7.15;3.55;;;19.50;81.90;;;;;;5036899;28;20107;-54
2022/06/04 17:48:45;;;;;;;8.95;2.75;;;19.50;81.40;;;;;;5036887;28;20397;-54
2022/06/04 17:51:14;;;;;;;6.97;2.85;;;19.40;81.40;;;;;;5036798;28;20092;-55
2022/06/04 17:53:41;;;;;;;7.78;3.08;;;19.40;81.80;;;;;;5036617;28;20044;-51
2022/06/04 17:56:08;;;;;;;7.68;2.63;;;19.40;81.20;;;;;;5036817;28;20049;-55
2022/06/04 17:58:35;;;;;;;7.68;2.85;;;19.40;81.30;;;;;;5036727;28;20048;-55
2022/06/04 18:01:04;;;;;;;8.35;2.92;;;19.30;81.60;;;;;;5036748;28;20049;-53
2022/06/04 18:03:31;;;;;;;8.77;3.53;;;19.20;81.10;;;;;;5036554;28;20041;-56
2022/06/04 18:05:58;;;;;;;8.38;3.17;;;19.10;81.50;;;;;;5035488;28;20072;-57
2022/06/04 18:08:24;;;;;;;7.22;3.08;;;18.90;81.60;;;;;;5036802;28;20045;-57
2022/06/04 18:10:51;;;;;;;7.55;2.90;;;18.70;82.30;;;;;;5036800;28;20046;-55
2022/06/04 18:13:18;;;;;;;8.40;2.92;;;18.60;82.20;;;;;;5036286;28;20064;-55
2022/06/04 18:15:49;;;;;;;10.80;4.72;;;18.50;82.60;;;;;;5036332;28;20037;-55
2022/06/04 18:18:16;;;;;;;11.93;5.55;;;18.50;82.90;;;;;;5036266;28;20049;-52
2022/06/04 18:20:43;;;;;;;8.73;3.75;;;18.40;82.80;;;;;;5039770;28;20041;-52
2022/06/04 18:23:10;;;;;;;9.23;4.00;;;18.30;82.70;;;;;;5038554;28;20033;-53
2022/06/04 18:25:37;;;;;;;8.65;3.30;;;18.10;83.50;;;;;;5036209;28;20527;-55
2022/06/04 18:28:04;;;;;;;7.97;3.30;;;18.00;84.00;;;;;;5036433;28;20048;-56
2022/06/04 18:30:31;;;;;;;8.98;3.10;;;18.00;84.00;;;;;;5036275;28;20041;-55
2022/06/04 18:32:57;;;;;;;7.55;2.97;;;17.80;84.30;;;;;;5035104;28;20041;-52
2022/06/04 18:35:24;;;;;;;9.40;2.80;;;17.80;84.50;;;;;;5036127;28;20073;-56
2022/06/04 18:37:51;;;;;;;6.38;2.75;;;17.80;84.50;;;;;;5036793;28;20133;-58
2022/06/04 18:40:18;;;;;;;7.82;2.92;;;17.80;84.50;;;;;;5036135;28;20527;-53
2022/06/04 18:56:32;;;;;;;;;;;17.40;86.40;;;;;;5032593;28;20041;-55
2022/06/04 18:59:02;;;;;;;6.57;3.20;;;17.30;86.90;;;;;;5035946;28;20372;-56
2022/06/04 19:01:29;;;;;;;9.20;2.95;;;17.20;87.20;;;;;;5035895;28;20110;-54
2022/06/04 19:03:56;;;;;;;10.90;3.10;;;17.20;87.70;;;;;;5035808;28;20546;-55
2022/06/04 19:06:23;;;;;;;10.23;3.40;;;17.20;88.10;;;;;;5035764;28;20041;-55
2022/06/04 19:08:49;;;;;;;10.38;3.35;;;17.00;88.10;;;;;;5035770;28;20559;-56
2022/06/04 19:14:02;;;;;;;;;;;16.80;89.60;;;;;;5035855;28;20046;-55
2022/06/04 19:16:29;;;;;;;10.38;3.15;;;16.70;89.80;;;;;;5035453;28;19921;-55
2022/06/04 19:18:56;;;;;;;9.25;3.60;;;16.70;89.60;;;;;;5036649;28;20505;-55
2022/06/04 19:26:54;;;;;;;8.05;3.38;;;16.70;89.60;;;;;;5035361;28;20049;-53
2022/06/04 19:29:21;;;;;;;8.80;3.60;;;16.70;89.80;;;;;;5035180;28;20476;-57
2022/06/04 19:31:47;;;;;;;6.80;3.10;;;16.70;89.70;;;;;;5035028;28;20091;-57
2022/06/04 19:34:14;;;;;;;9.80;3.35;;;16.70;90.00;;;;;;5035094;28;20045;-58
2022/06/04 19:36:41;;;;;;;11.55;4.18;;;16.70;90.00;;;;;;5034906;28;20037;-56
2022/06/04 19:39:07;;;;;;;7.65;3.28;;;16.70;90.00;;;;;;5034989;28;20144;-54
2022/06/04 19:41:34;;;;;;;10.70;4.05;;;16.70;90.00;;;;;;5035027;28;20407;-54
2022/06/04 19:44:01;;;;;;;10.32;3.65;;;16.60;90.00;;;;;;5034722;28;20072;-51
2022/06/04 19:46:28;;;;;;;9.30;3.35;;;16.50;89.90;;;;;;5034784;28;20041;-56
2022/06/04 19:48:55;;;;;;;7.85;3.17;;;16.20;90.10;;;;;;5037143;28;20041;-56
2022/06/04 19:51:22;;;;;;;9.43;4.00;;;16.20;90.30;;;;;;5038630;28;20069;-57
2022/06/04 19:56:41;;;;;;;7.05;3.13;;;16.20;90.10;;;;;;5034767;28;20060;-54
2022/06/04 19:59:07;;;;;;;8.15;3.20;;;16.10;89.20;;;;;;5034713;28;20049;-57
2022/06/04 20:01:34;;;;;;;8.43;3.53;;;16.10;89.60;;;;;;5034475;28;20087;-53
2022/06/04 20:04:01;;;;;;;8.02;3.15;;;16.00;89.70;;;;;;5033732;28;20396;-57
2022/06/04 20:06:28;;;;;;;9.57;3.75;;;16.00;90.00;;;;;;5034478;28;20095;-57
2022/06/04 20:08:55;;;;;;;12.18;3.58;;;16.00;90.20;;;;;;5034420;28;20076;-52
2022/06/04 20:11:29;;;;;;;10.02;3.63;;;16.00;90.40;;;;;;5034340;28;20447;-53
2022/06/04 20:13:56;;;;;;;9.68;4.05;;;15.90;90.60;;;;;;5033939;28;20038;-55
2022/06/04 20:16:22;;;;;;;10.27;4.10;;;15.90;90.70;;;;;;5034226;28;20485;-56
2022/06/04 20:18:49;;;;;;;11.15;4.53;;;15.90;90.90;;;;;;5037392;28;20049;-57
2022/06/04 20:21:18;;;;;;;12.20;3.90;;;15.90;91.00;;;;;;5034511;28;20037;-55
2022/06/04 20:23:45;;;;;;;10.13;3.75;;;15.80;91.00;;;;;;5034313;28;20045;-56
2022/06/04 20:26:12;;;;;;;10.93;4.10;;;15.80;91.00;;;;;;5034495;28;20060;-54
2022/06/04 20:28:39;;;;;;;10.10;3.72;;;15.80;91.30;;;;;;5034689;28;20045;-57
2022/06/04 20:31:09;;;;;;;10.35;4.00;;;15.70;91.20;;;;;;5034291;28;20048;-56
2022/06/04 20:33:35;;;;;;;11.80;3.83;;;15.60;91.30;;;;;;5028085;28;20100;-56
2022/06/04 20:36:02;;;;;;;10.07;4.60;;;15.60;91.40;;;;;;5034539;28;20048;-58
2022/06/04 20:38:29;;;;;;;10.57;3.92;;;15.50;91.50;;;;;;5033977;28;20045;-53
2022/06/04 20:40:56;;;;;;;10.90;4.15;;;15.50;91.60;;;;;;5033842;28;20542;-56
2022/06/04 20:43:22;;;;;;;7.57;3.45;;;15.50;91.70;;;;;;5033677;28;20037;-57
2022/06/04 20:45:49;;;;;;;10.93;3.83;;;15.50;91.90;;;;;;5033805;28;20041;-57
2022/06/04 20:48:16;;;;;;;10.30;4.28;;;15.50;91.90;;;;;;5033673;28;20120;-53
2022/06/04 20:50:43;;;;;;;10.65;4.05;;;15.40;92.10;;;;;;5033199;28;20060;-55
2022/06/04 20:53:10;;;;;;;12.23;4.55;;;15.40;92.20;;;;;;5033621;28;20038;-54
2022/06/04 20:55:36;;;;;;;12.50;4.00;;;15.40;92.20;;;;;;5033546;28;20128;-54
2022/06/04 20:58:04;;;;;;;9.43;4.22;;;15.40;92.30;;;;;;5033569;28;20044;-56
2022/06/04 21:00:30;;;;;;;12.10;4.50;;;15.40;92.30;;;;;;5033594;28;20046;-53
2022/06/04 21:02:57;;;;;;;10.30;4.50;;;15.50;92.30;;;;;;5033336;28;20037;-55
2022/06/04 21:05:24;;;;;;;12.85;5.15;;;15.50;92.30;;;;;;5033512;28;20044;-56
2022/06/04 21:07:51;;;;;;;15.23;6.32;;;15.40;92.30;;;;;;5033408;28;20424;-56
2022/06/04 21:10:17;;;;;;;10.93;4.88;;;15.30;92.40;;;;;;5033303;28;20048;-54
2022/06/04 21:12:44;;;;;;;9.35;4.65;;;15.20;92.60;;;;;;5033198;28;20073;-56
2022/06/04 21:15:12;;;;;;;10.23;4.20;;;15.20;92.60;;;;;;5033280;28;20037;-55
2022/06/04 21:17:42;;;;;;;13.27;4.85;;;15.20;92.60;;;;;;5033266;28;20049;-57
2022/06/04 21:20:09;;;;;;;14.10;4.07;;;15.30;92.70;;;;;;5035876;28;20049;-54
2022/06/04 21:22:35;;;;;;;11.05;4.03;;;15.30;92.70;;;;;;5037579;28;20046;-55
2022/06/04 21:25:02;;;;;;;9.35;3.95;;;15.30;92.70;;;;;;5033208;28;20072;-57
2022/06/04 21:27:29;;;;;;;8.95;4.60;;;15.20;92.60;;;;;;5032095;28;20049;-55
2022/06/04 21:29:56;;;;;;;10.43;4.38;;;15.20;92.80;;;;;;5033359;28;20178;-56
2022/06/04 21:32:23;;;;;;;9.65;4.22;;;15.10;92.90;;;;;;5033440;28;20041;-56
2022/06/04 21:37:41;;;;;;;10.80;4.75;;;15.00;93.10;;;;;;5027949;28;20050;-54
2022/06/04 21:40:07;;;;;;;9.98;4.32;;;15.00;93.30;;;;;;5033173;28;20042;-58
2022/06/04 21:42:35;;;;;;;11.07;4.28;;;15.00;93.30;;;;;;5033965;28;20063;-59
2022/06/04 21:45:02;;;;;;;9.13;4.32;;;15.00;93.50;;;;;;5033102;28;20472;-52
2022/06/04 21:47:29;;;;;;;9.55;4.43;;;15.00;93.60;;;;;;5032924;28;20050;-55
2022/06/04 21:50:03;;;;;;;13.35;5.55;;;15.10;93.60;;;;;;5032784;28;20029;-54
2022/06/04 21:52:29;;;;;;;10.68;4.82;;;15.10;93.70;;;;;;5031494;28;20408;-49
2022/06/04 21:54:56;;;;;;;11.85;5.18;;;15.20;93.80;;;;;;5032830;28;20033;-55
2022/06/04 21:57:23;;;;;;;12.68;5.05;;;15.10;94.00;;;;;;5033016;28;20480;-57
2022/06/04 21:59:50;;;;;;;11.40;4.90;;;15.10;94.10;;;;;;5032647;28;20052;-52
2022/06/04 22:02:17;;;;;;;10.15;5.20;;;15.10;94.30;;;;;;5032829;28;20087;-52
2022/06/04 22:04:43;;;;;;;10.60;5.10;;;15.00;94.50;;;;;;5032659;28;20467;-54
2022/06/04 22:07:10;;;;;;;11.38;5.15;;;15.00;94.70;;;;;;5031850;28;20076;-55
2022/06/04 22:09:37;;;;;;;15.20;5.60;;;15.00;94.80;;;;;;5032397;28;20057;-50
2022/06/04 22:12:06;;;;;;;12.90;4.65;;;15.00;94.80;;;;;;5032468;28;20034;-53
2022/06/04 22:14:34;;;;;;;13.07;5.50;;;14.90;94.90;;;;;;5032597;28;20038;-51
2022/06/04 22:17:00;;;;;;;12.77;5.00;;;14.90;94.70;;;;;;5033530;28;20072;-55
2022/06/04 22:19:27;;;;;;;10.25;5.20;;;14.90;94.70;;;;;;5036406;28;20107;-53
2022/06/04 22:21:54;;;;;;;14.70;5.53;;;14.90;94.80;;;;;;5032617;28;20044;-50
2022/06/04 22:24:21;;;;;;;10.15;5.25;;;14.80;95.00;;;;;;5032452;28;20050;-56
2022/06/04 22:26:47;;;;;;;14.38;5.70;;;14.70;95.40;;;;;;5034181;28;20048;-50
2022/06/04 22:29:14;;;;;;;9.50;5.18;;;14.60;95.70;;;;;;5036772;28;20038;-53
2022/06/04 22:31:41;;;;;;;13.13;4.88;;;14.50;95.80;;;;;;5029769;28;20472;-52
2022/06/04 22:34:08;;;;;;;10.85;5.15;;;14.50;95.90;;;;;;5036009;28;20037;-52
2022/06/04 22:36:34;;;;;;;14.40;5.78;;;14.40;96.10;;;;;;5036195;28;20072;-52
2022/06/04 22:39:01;;;;;;;14.27;6.07;;;14.40;96.20;;;;;;5035279;28;20041;-51
2022/06/04 22:41:28;;;;;;;15.07;5.43;;;14.30;96.40;;;;;;5035855;28;20087;-54
2022/06/04 22:43:55;;;;;;;15.38;5.88;;;14.30;96.40;;;;;;5036063;28;20409;-54
2022/06/04 22:46:22;;;;;;;12.48;5.43;;;14.40;96.50;;;;;;5035769;28;20041;-50
2022/06/04 22:48:49;;;;;;;10.55;5.78;;;14.30;96.50;;;;;;5035981;28;20046;-52
2022/06/04 22:51:16;;;;;;;13.45;5.57;;;14.30;96.50;;;;;;5035759;28;20099;-53